createdAt,value
2023-02-17T00:08:28.717Z,8.55
2023-02-17T00:13:20.531Z,10.50
2023-02-17T00:18:12.251Z,8.90
2023-02-17T00:23:03.999Z,7.45
2023-02-17T00:27:55.717Z,11.20
2023-02-17T00:32:47.552Z,8.10
2023-02-17T00:37:40.513Z,8.18
2023-02-17T00:42:32.439Z,9.23
2023-02-17T00:47:24.202Z,8.30
2023-02-17T00:52:15.978Z,11.50
2023-02-17T00:57:07.753Z,11.95
2023-02-17T01:01:59.528Z,12.80
2023-02-17T01:06:51.299Z,11.80
2023-02-17T01:11:43.544Z,16.95
2023-02-17T01:16:38.117Z,22.55
2023-02-17T01:21:31.007Z,23.42
2023-02-17T01:26:26.410Z,26.33
2023-02-17T01:31:19.537Z,30.77
2023-02-17T01:36:14.397Z,33.03
2023-02-17T01:41:07.944Z,34.53
2023-02-17T01:46:07.893Z,36.72
2023-02-17T01:51:05.983Z,36.28
2023-02-17T01:55:59.120Z,40.55
2023-02-17T02:00:52.840Z,35.58
2023-02-17T02:05:44.649Z,34.75
2023-02-17T02:10:36.605Z,34.00
2023-02-17T02:16:05.493Z,35.05
2023-02-17T02:21:24.134Z,36.00
2023-02-17T02:26:31.537Z,34.05
2023-02-17T02:31:29.122Z,36.75
2023-02-17T02:36:28.737Z,31.95
2023-02-17T02:41:25.257Z,32.63
2023-02-17T02:46:17.192Z,29.80
2023-02-17T02:51:26.876Z,29.30
2023-02-17T02:56:31.289Z,34.92
2023-02-17T03:01:47.090Z,33.97
2023-02-17T03:06:48.144Z,33.20
2023-02-17T03:11:42.189Z,33.35
2023-02-17T03:16:36.687Z,30.35
2023-02-17T03:21:42.240Z,28.85
2023-02-17T03:26:34.296Z,26.50
2023-02-17T03:31:29.017Z,25.80
2023-02-17T03:36:22.124Z,21.75
2023-02-17T03:41:14.055Z,16.67
2023-02-17T03:46:11.027Z,21.00
2023-02-17T03:51:18.102Z,16.33
2023-02-17T03:56:10.889Z,12.15
2023-02-17T04:01:02.681Z,9.43
2023-02-17T04:05:54.772Z,11.35
2023-02-17T04:10:46.630Z,11.50
2023-02-17T04:15:38.426Z,13.27
2023-02-17T04:20:30.160Z,10.05
2023-02-17T04:25:21.991Z,8.95
2023-02-17T04:30:14.469Z,11.13
2023-02-17T04:35:06.682Z,8.55
2023-02-17T04:39:58.450Z,8.48
2023-02-17T04:44:50.218Z,8.95
2023-02-17T04:49:41.939Z,9.27
2023-02-17T04:54:33.717Z,8.45
2023-02-17T04:59:25.865Z,9.23
2023-02-17T05:04:17.640Z,11.88
2023-02-17T05:09:09.404Z,10.38
2023-02-17T05:14:01.122Z,8.65
2023-02-17T05:18:52.889Z,9.13
2023-02-17T05:23:44.657Z,10.73
2023-02-17T05:28:37.430Z,9.35
2023-02-17T05:33:29.558Z,8.75
2023-02-17T05:38:21.461Z,7.97
2023-02-17T05:43:13.218Z,10.35
2023-02-17T05:48:04.984Z,9.00
2023-02-17T05:52:56.723Z,7.65
2023-02-17T05:57:48.673Z,12.80
2023-02-17T06:02:41.098Z,9.30
2023-02-17T06:07:32.987Z,9.32
2023-02-17T06:12:24.775Z,8.88
2023-02-17T06:17:16.596Z,11.68
2023-02-17T06:22:08.339Z,11.88
2023-02-17T06:27:01.569Z,12.05
2023-02-17T06:31:53.963Z,12.48
2023-02-17T06:36:46.095Z,9.25
2023-02-17T06:41:37.852Z,19.45
2023-02-17T06:46:29.698Z,12.32
2023-02-17T06:51:21.655Z,13.85
2023-02-17T06:56:13.405Z,13.18
2023-02-17T07:01:05.775Z,11.25
2023-02-17T07:06:01.048Z,11.90
2023-02-17T07:10:52.823Z,17.40
2023-02-17T07:15:44.620Z,14.85
2023-02-17T07:20:38.901Z,12.88
2023-02-17T07:25:31.024Z,15.18
2023-02-17T07:30:22.861Z,12.20
2023-02-17T07:35:14.730Z,10.65
2023-02-17T07:40:07.301Z,12.52
2023-02-17T07:44:59.065Z,12.38
2023-02-17T07:49:50.898Z,14.15
2023-02-17T07:54:42.631Z,17.85
2023-02-17T07:59:34.384Z,17.70
2023-02-17T08:04:26.256Z,14.63
2023-02-17T08:09:36.641Z,11.88
2023-02-17T08:14:30.433Z,13.68
2023-02-17T08:19:22.787Z,12.77
2023-02-17T08:24:16.469Z,11.20
2023-02-17T08:29:08.837Z,12.80
2023-02-17T08:34:02.147Z,11.98
2023-02-17T08:38:55.232Z,12.25
2023-02-17T08:43:47.777Z,9.85
2023-02-17T08:48:39.628Z,16.70
2023-02-17T08:53:32.085Z,19.88
2023-02-17T08:58:23.884Z,18.35
2023-02-17T09:03:15.972Z,15.85
2023-02-17T09:08:07.863Z,17.10
2023-02-17T09:12:59.668Z,18.70
2023-02-17T09:17:51.400Z,14.52
2023-02-17T09:22:43.153Z,17.48
2023-02-17T09:27:34.923Z,22.17
2023-02-17T09:32:26.918Z,28.42
2023-02-17T09:37:19.719Z,23.02
2023-02-17T09:42:23.529Z,20.70
2023-02-17T09:47:20.751Z,23.83
2023-02-17T09:52:36.521Z,25.20
2023-02-17T09:57:31.516Z,29.00
2023-02-17T10:02:50.776Z,22.80
2023-02-17T10:12:48.837Z,21.70
2023-02-17T10:17:50.918Z,18.30
2023-02-17T10:22:50.939Z,21.42
2023-02-17T10:27:45.341Z,25.98
2023-02-17T10:32:54.445Z,21.08
2023-02-17T10:37:48.624Z,30.73
2023-02-17T10:42:40.574Z,27.52
2023-02-17T10:47:36.161Z,31.33
2023-02-17T10:52:39.368Z,27.27
2023-02-17T10:57:38.112Z,25.30
2023-02-17T11:02:50.523Z,43.15
2023-02-17T11:07:42.717Z,31.17
2023-02-17T11:12:40.498Z,25.67
2023-02-17T11:17:38.566Z,26.53
2023-02-17T11:22:33.105Z,24.95
2023-02-17T11:27:26.492Z,31.90
2023-02-17T11:32:20.158Z,25.17
2023-02-17T11:37:11.877Z,30.10
2023-02-17T11:42:17.348Z,26.27
2023-02-17T11:47:39.859Z,24.38
2023-02-17T11:52:52.120Z,25.33
2023-02-17T11:58:12.008Z,24.20
2023-02-17T12:03:26.743Z,22.90
2023-02-17T12:08:56.118Z,27.80
2023-02-17T12:13:56.925Z,26.05
2023-02-17T12:19:02.069Z,24.80
2023-02-17T12:24:17.206Z,25.08
2023-02-17T12:29:18.094Z,23.40
2023-02-17T12:34:21.660Z,23.40
2023-02-17T12:39:40.308Z,24.80
2023-02-17T12:44:37.859Z,25.08
2023-02-17T12:49:55.571Z,20.63
2023-02-17T12:54:47.348Z,28.75
2023-02-17T12:59:47.784Z,26.83
2023-02-17T13:04:41.914Z,26.85
2023-02-17T13:09:38.132Z,28.90
2023-02-17T13:14:41.293Z,25.23
2023-02-17T13:19:35.353Z,28.25
2023-02-17T13:24:38.836Z,24.13
2023-02-17T13:29:35.955Z,26.55
2023-02-17T13:34:36.810Z,25.88
2023-02-17T13:39:28.608Z,27.65
2023-02-17T13:44:30.653Z,31.65
2023-02-17T13:49:27.879Z,34.60
2023-02-17T13:54:22.298Z,30.25
2023-02-17T13:59:19.217Z,28.85
2023-02-17T14:04:32.794Z,28.83
2023-02-17T14:09:31.322Z,29.17
2023-02-17T14:19:25.520Z,23.63
2023-02-17T14:24:26.633Z,26.40
2023-02-17T14:29:18.380Z,35.08
2023-02-17T14:34:25.158Z,28.60
2023-02-17T14:39:16.978Z,22.45
2023-02-17T14:44:08.764Z,32.10
2023-02-17T14:49:00.598Z,25.45
2023-02-17T14:53:53.168Z,25.48
2023-02-17T14:58:45.070Z,29.88
2023-02-17T15:03:36.857Z,29.15
2023-02-17T15:08:34.027Z,27.63
2023-02-17T15:13:26.577Z,30.80
2023-02-17T15:18:19.822Z,32.33
2023-02-17T15:23:14.109Z,34.08
2023-02-17T15:28:06.302Z,27.70
2023-02-17T15:32:58.291Z,27.05
2023-02-17T15:37:50.771Z,32.35
2023-02-17T15:42:44.101Z,28.20
2023-02-17T15:47:35.978Z,31.45
2023-02-17T15:52:27.721Z,27.42
2023-02-17T15:57:23.505Z,27.35
2023-02-17T16:02:22.384Z,29.15
2023-02-17T16:07:14.712Z,26.65
2023-02-17T16:12:15.912Z,23.45
2023-02-17T16:17:14.521Z,23.85
2023-02-17T16:26:58.295Z,26.13
2023-02-17T16:31:50.296Z,24.73
2023-02-17T16:36:42.285Z,32.90
2023-02-17T16:41:34.011Z,26.85
2023-02-17T16:46:32.073Z,31.48
2023-02-17T16:51:23.948Z,29.00
2023-02-17T16:56:24.429Z,25.17
2023-02-17T17:01:16.225Z,35.25
2023-02-17T17:06:25.561Z,31.23
2023-02-17T17:11:21.678Z,30.88
2023-02-17T17:16:21.176Z,33.22
2023-02-17T17:21:15.407Z,30.23
2023-02-17T17:26:28.361Z,26.52
2023-02-17T17:31:21.389Z,30.63
2023-02-17T17:36:21.106Z,24.25
2023-02-17T17:41:13.992Z,37.20
2023-02-17T17:46:13.013Z,26.98
2023-02-17T17:51:04.906Z,31.92
2023-02-17T17:55:56.758Z,32.58
2023-02-17T18:00:48.510Z,31.17
2023-02-17T18:05:40.492Z,29.77
2023-02-17T18:10:32.818Z,30.45
2023-02-17T18:15:25.527Z,32.05
2023-02-17T18:20:17.583Z,28.88
2023-02-17T18:25:10.197Z,27.95
2023-02-17T18:30:02.042Z,34.75
2023-02-17T18:34:57.174Z,38.53
2023-02-17T18:45:09.652Z,43.10
2023-02-17T18:50:01.427Z,43.42
2023-02-17T18:54:53.179Z,40.58
2023-02-17T18:59:45.043Z,38.83
2023-02-17T19:04:37.097Z,33.65
2023-02-17T19:09:37.800Z,37.92
2023-02-17T19:14:33.652Z,30.25
2023-02-17T19:19:25.794Z,31.17
2023-02-17T19:24:17.613Z,32.03
2023-02-17T19:29:09.754Z,35.42
2023-02-17T19:34:01.532Z,35.67
2023-02-17T19:38:56.721Z,40.08
2023-02-17T19:43:49.208Z,31.80
2023-02-17T19:48:41.383Z,31.63
2023-02-17T19:53:33.912Z,25.83
2023-02-17T19:58:25.783Z,23.88
2023-02-17T20:03:17.558Z,22.08
2023-02-17T20:08:09.287Z,17.48
2023-02-17T20:13:01.085Z,19.48
2023-02-17T20:17:52.796Z,16.50
2023-02-17T20:22:44.501Z,18.23
2023-02-17T20:27:36.326Z,16.52
2023-02-17T20:32:28.465Z,21.08
2023-02-17T20:37:20.280Z,19.98
2023-02-17T20:42:12.086Z,24.35
2023-02-17T20:47:03.996Z,21.35
2023-02-17T20:51:55.861Z,18.58
2023-02-17T20:56:48.573Z,17.13
2023-02-17T21:01:41.831Z,16.27
2023-02-17T21:06:38.187Z,16.98
2023-02-17T21:11:30.434Z,14.00
2023-02-17T21:16:26.289Z,14.63
2023-02-17T21:21:18.215Z,16.55
2023-02-17T21:26:11.726Z,19.05
2023-02-17T21:31:04.438Z,13.00
2023-02-17T21:35:56.397Z,16.35
2023-02-17T21:40:50.087Z,13.25
2023-02-17T21:45:44.757Z,14.02
2023-02-17T21:50:36.526Z,11.25
2023-02-17T21:55:28.270Z,13.18
2023-02-17T22:00:20.274Z,11.20
2023-02-17T22:05:12.210Z,10.68
2023-02-17T22:10:05.793Z,15.00
2023-02-17T22:14:57.689Z,11.20
2023-02-17T22:19:49.484Z,11.95
2023-02-17T22:24:41.261Z,15.20
2023-02-17T22:29:33.011Z,13.88
2023-02-17T22:34:26.255Z,10.82
2023-02-17T22:39:18.037Z,12.43
2023-02-17T22:44:09.833Z,11.93
2023-02-17T22:49:01.881Z,14.23
2023-02-17T22:53:53.663Z,11.02
2023-02-17T22:58:45.417Z,13.50
2023-02-17T23:03:37.811Z,8.90
2023-02-17T23:08:29.802Z,10.27
2023-02-17T23:13:21.670Z,12.20
2023-02-17T23:18:17.447Z,9.52
2023-02-17T23:23:09.589Z,10.60
2023-02-17T23:28:01.765Z,11.05
2023-02-17T23:32:53.675Z,10.82
2023-02-17T23:37:45.430Z,11.30
2023-02-17T23:42:37.429Z,10.40
2023-02-17T23:47:29.176Z,9.75
2023-02-17T23:52:20.934Z,13.32
2023-02-17T23:57:12.659Z,9.00
